sensor_id;sensor_type;location;lat;lon;timestamp;P1;durP1;ratioP1;P2;durP2;ratioP2
63555;SDS011;49700;48.072;7.800;2022-09-24T00:00:52;7.40;;;6.80;;
63555;SDS011;49700;48.072;7.800;2022-09-24T00:03:21;8.50;;;7.40;;
63555;SDS011;49700;48.072;7.800;2022-09-24T00:05:49;8.02;;;7.32;;
63555;SDS011;49700;48.072;7.800;2022-09-24T00:08:16;13.27;;;8.18;;
63555;SDS011;49700;48.072;7.800;2022-09-24T00:10:42;16.73;;;7.55;;
63555;SDS011;49700;48.072;7.800;2022-09-24T00:13:10;8.23;;;6.28;;
63555;SDS011;49700;48.072;7.800;2022-09-24T00:15:38;8.48;;;6.95;;
63555;SDS011;49700;48.072;7.800;2022-09-24T00:18:05;8.95;;;7.30;;
63555;SDS011;49700;48.072;7.800;2022-09-24T00:20:32;9.05;;;7.05;;
63555;SDS011;49700;48.072;7.800;2022-09-24T00:22:58;10.38;;;7.25;;
63555;SDS011;49700;48.072;7.800;2022-09-24T00:25:25;8.43;;;6.55;;
63555;SDS011;49700;48.072;7.800;2022-09-24T00:28:09;8.93;;;7.95;;
63555;SDS011;49700;48.072;7.800;2022-09-24T00:30:36;7.45;;;6.38;;
63555;SDS011;49700;48.072;7.800;2022-09-24T00:33:02;8.32;;;6.20;;
63555;SDS011;49700;48.072;7.800;2022-09-24T00:35:30;8.43;;;7.67;;
63555;SDS011;49700;48.072;7.800;2022-09-24T00:37:56;9.07;;;6.78;;
63555;SDS011;49700;48.072;7.800;2022-09-24T00:40:26;9.57;;;7.93;;
63555;SDS011;49700;48.072;7.800;2022-09-24T00:42:59;10.73;;;6.82;;
63555;SDS011;49700;48.072;7.800;2022-09-24T00:45:24;8.00;;;7.17;;
63555;SDS011;49700;48.072;7.800;2022-09-24T00:47:53;8.82;;;7.25;;
63555;SDS011;49700;48.072;7.800;2022-09-24T00:50:29;8.37;;;7.33;;
63555;SDS011;49700;48.072;7.800;2022-09-24T00:53:13;8.68;;;6.70;;
63555;SDS011;49700;48.072;7.800;2022-09-24T00:55:43;10.45;;;6.85;;
63555;SDS011;49700;48.072;7.800;2022-09-24T00:58:12;8.77;;;7.20;;
63555;SDS011;49700;48.072;7.800;2022-09-24T01:00:39;6.95;;;6.10;;
63555;SDS011;49700;48.072;7.800;2022-09-24T01:03:16;8.18;;;7.30;;
63555;SDS011;49700;48.072;7.800;2022-09-24T01:05:45;7.47;;;6.63;;
63555;SDS011;49700;48.072;7.800;2022-09-24T01:08:14;7.60;;;6.90;;
63555;SDS011;49700;48.072;7.800;2022-09-24T01:16:27;8.05;;;7.32;;
63555;SDS011;49700;48.072;7.800;2022-09-24T01:22:05;7.10;;;6.43;;
63555;SDS011;49700;48.072;7.800;2022-09-24T01:30:42;7.60;;;6.25;;
63555;SDS011;49700;48.072;7.800;2022-09-24T01:33:12;6.68;;;5.78;;
63555;SDS011;49700;48.072;7.800;2022-09-24T01:35:46;9.68;;;7.00;;
63555;SDS011;49700;48.072;7.800;2022-09-24T01:38:20;12.45;;;7.15;;
63555;SDS011;49700;48.072;7.800;2022-09-24T01:40:49;11.63;;;6.63;;
63555;SDS011;49700;48.072;7.800;2022-09-24T01:43:18;7.97;;;7.20;;
63555;SDS011;49700;48.072;7.800;2022-09-24T01:45:48;8.18;;;7.35;;
63555;SDS011;49700;48.072;7.800;2022-09-24T01:48:13;9.83;;;7.07;;
63555;SDS011;49700;48.072;7.800;2022-09-24T01:50:51;7.18;;;6.45;;
63555;SDS011;49700;48.072;7.800;2022-09-24T01:53:23;11.45;;;7.53;;
63555;SDS011;49700;48.072;7.800;2022-09-24T01:55:54;7.53;;;6.82;;
63555;SDS011;49700;48.072;7.800;2022-09-24T01:58:28;9.20;;;8.00;;
63555;SDS011;49700;48.072;7.800;2022-09-24T02:01:02;8.30;;;7.07;;
63555;SDS011;49700;48.072;7.800;2022-09-24T02:03:33;7.90;;;7.13;;
63555;SDS011;49700;48.072;7.800;2022-09-24T02:06:14;7.78;;;6.97;;
63555;SDS011;49700;48.072;7.800;2022-09-24T02:08:45;11.75;;;7.80;;
63555;SDS011;49700;48.072;7.800;2022-09-24T02:11:14;9.05;;;7.03;;
63555;SDS011;49700;48.072;7.800;2022-09-24T02:13:43;8.75;;;7.85;;
63555;SDS011;49700;48.072;7.800;2022-09-24T02:16:21;10.82;;;8.20;;
63555;SDS011;49700;48.072;7.800;2022-09-24T02:18:50;8.35;;;6.93;;
63555;SDS011;49700;48.072;7.800;2022-09-24T02:21:19;9.30;;;8.30;;
63555;SDS011;49700;48.072;7.800;2022-09-24T02:23:47;8.95;;;7.38;;
63555;SDS011;49700;48.072;7.800;2022-09-24T02:26:16;8.60;;;7.68;;
63555;SDS011;49700;48.072;7.800;2022-09-24T02:28:41;10.07;;;7.37;;
63555;SDS011;49700;48.072;7.800;2022-09-24T02:31:09;9.13;;;8.23;;
63555;SDS011;49700;48.072;7.800;2022-09-24T02:33:40;10.40;;;9.48;;
63555;SDS011;49700;48.072;7.800;2022-09-24T02:36:27;10.65;;;8.48;;
63555;SDS011;49700;48.072;7.800;2022-09-24T02:38:53;9.57;;;8.68;;
63555;SDS011;49700;48.072;7.800;2022-09-24T02:41:19;9.43;;;8.50;;
63555;SDS011;49700;48.072;7.800;2022-09-24T02:43:47;9.82;;;8.77;;
63555;SDS011;49700;48.072;7.800;2022-09-24T02:46:13;11.40;;;8.50;;
63555;SDS011;49700;48.072;7.800;2022-09-24T02:48:38;9.50;;;8.47;;
63555;SDS011;49700;48.072;7.800;2022-09-24T02:51:04;9.47;;;8.50;;
63555;SDS011;49700;48.072;7.800;2022-09-24T02:53:30;10.00;;;7.87;;
63555;SDS011;49700;48.072;7.800;2022-09-24T02:55:56;10.82;;;8.82;;
63555;SDS011;49700;48.072;7.800;2022-09-24T02:58:25;13.10;;;8.77;;
63555;SDS011;49700;48.072;7.800;2022-09-24T03:00:51;9.30;;;8.25;;
63555;SDS011;49700;48.072;7.800;2022-09-24T03:03:19;8.88;;;7.25;;
63555;SDS011;49700;48.072;7.800;2022-09-24T03:05:45;10.75;;;9.13;;
63555;SDS011;49700;48.072;7.800;2022-09-24T03:08:11;9.80;;;8.13;;
63555;SDS011;49700;48.072;7.800;2022-09-24T03:10:36;9.33;;;8.33;;
63555;SDS011;49700;48.072;7.800;2022-09-24T03:13:02;14.43;;;8.57;;
63555;SDS011;49700;48.072;7.800;2022-09-24T03:15:27;11.13;;;7.23;;
63555;SDS011;49700;48.072;7.800;2022-09-24T03:17:53;7.30;;;6.63;;
63555;SDS011;49700;48.072;7.800;2022-09-24T03:20:19;8.50;;;6.83;;
63555;SDS011;49700;48.072;7.800;2022-09-24T03:22:48;9.43;;;6.60;;
63555;SDS011;49700;48.072;7.800;2022-09-24T03:25:15;9.18;;;5.75;;
63555;SDS011;49700;48.072;7.800;2022-09-24T03:27:41;7.93;;;7.00;;
63555;SDS011;49700;48.072;7.800;2022-09-24T03:30:06;7.93;;;5.50;;
63555;SDS011;49700;48.072;7.800;2022-09-24T03:32:51;5.75;;;5.18;;
63555;SDS011;49700;48.072;7.800;2022-09-24T03:35:16;7.35;;;4.60;;
63555;SDS011;49700;48.072;7.800;2022-09-24T03:37:42;6.37;;;5.00;;
63555;SDS011;49700;48.072;7.800;2022-09-24T03:40:08;5.85;;;5.22;;
63555;SDS011;49700;48.072;7.800;2022-09-24T03:42:34;5.47;;;4.77;;
63555;SDS011;49700;48.072;7.800;2022-09-24T03:44:59;7.23;;;5.27;;
63555;SDS011;49700;48.072;7.800;2022-09-24T03:47:25;7.87;;;5.23;;
63555;SDS011;49700;48.072;7.800;2022-09-24T03:49:50;5.70;;;5.00;;
63555;SDS011;49700;48.072;7.800;2022-09-24T03:52:17;5.30;;;4.80;;
63555;SDS011;49700;48.072;7.800;2022-09-24T03:54:43;7.43;;;4.20;;
63555;SDS011;49700;48.072;7.800;2022-09-24T03:57:08;5.37;;;4.47;;
63555;SDS011;49700;48.072;7.800;2022-09-24T03:59:34;6.90;;;5.10;;
63555;SDS011;49700;48.072;7.800;2022-09-24T04:01:59;5.90;;;5.10;;
63555;SDS011;49700;48.072;7.800;2022-09-24T04:04:24;6.10;;;4.63;;
63555;SDS011;49700;48.072;7.800;2022-09-24T04:06:50;4.00;;;3.50;;
63555;SDS011;49700;48.072;7.800;2022-09-24T04:09:16;5.35;;;4.20;;
63555;SDS011;49700;48.072;7.800;2022-09-24T04:11:42;4.53;;;4.03;;
63555;SDS011;49700;48.072;7.800;2022-09-24T04:14:08;4.50;;;3.35;;
63555;SDS011;49700;48.072;7.800;2022-09-24T04:16:34;4.57;;;3.60;;
63555;SDS011;49700;48.072;7.800;2022-09-24T04:19:00;4.00;;;3.42;;
63555;SDS011;49700;48.072;7.800;2022-09-24T04:21:26;5.00;;;3.03;;
63555;SDS011;49700;48.072;7.800;2022-09-24T04:23:51;4.30;;;3.50;;
63555;SDS011;49700;48.072;7.800;2022-09-24T04:26:17;3.30;;;2.90;;
63555;SDS011;49700;48.072;7.800;2022-09-24T04:28:42;4.60;;;4.07;;
63555;SDS011;49700;48.072;7.800;2022-09-24T04:31:07;4.93;;;3.60;;
63555;SDS011;49700;48.072;7.800;2022-09-24T04:33:33;4.23;;;2.87;;
63555;SDS011;49700;48.072;7.800;2022-09-24T04:35:58;5.60;;;3.07;;
63555;SDS011;49700;48.072;7.800;2022-09-24T04:38:24;3.33;;;2.90;;
63555;SDS011;49700;48.072;7.800;2022-09-24T04:40:49;5.13;;;3.47;;
63555;SDS011;49700;48.072;7.800;2022-09-24T04:43:14;4.43;;;3.83;;
63555;SDS011;49700;48.072;7.800;2022-09-24T04:45:43;6.07;;;3.20;;
63555;SDS011;49700;48.072;7.800;2022-09-24T04:48:10;3.42;;;2.97;;
63555;SDS011;49700;48.072;7.800;2022-09-24T04:50:36;3.10;;;2.80;;
63555;SDS011;49700;48.072;7.800;2022-09-24T04:53:02;3.70;;;3.40;;
63555;SDS011;49700;48.072;7.800;2022-09-24T04:55:28;4.97;;;3.53;;
63555;SDS011;49700;48.072;7.800;2022-09-24T04:57:57;3.17;;;2.90;;
63555;SDS011;49700;48.072;7.800;2022-09-24T05:00:23;3.88;;;2.97;;
63555;SDS011;49700;48.072;7.800;2022-09-24T05:02:58;4.10;;;3.03;;
63555;SDS011;49700;48.072;7.800;2022-09-24T05:05:27;3.38;;;3.08;;
63555;SDS011;49700;48.072;7.800;2022-09-24T05:07:53;3.20;;;2.80;;
63555;SDS011;49700;48.072;7.800;2022-09-24T05:10:20;4.55;;;3.25;;
63555;SDS011;49700;48.072;7.800;2022-09-24T05:12:46;3.23;;;2.93;;
63555;SDS011;49700;48.072;7.800;2022-09-24T05:15:12;3.60;;;3.30;;
63555;SDS011;49700;48.072;7.800;2022-09-24T05:17:38;5.33;;;3.90;;
63555;SDS011;49700;48.072;7.800;2022-09-24T05:20:04;3.60;;;2.75;;
63555;SDS011;49700;48.072;7.800;2022-09-24T05:22:30;5.03;;;4.35;;
63555;SDS011;49700;48.072;7.800;2022-09-24T05:24:56;3.63;;;2.87;;
63555;SDS011;49700;48.072;7.800;2022-09-24T05:27:21;4.50;;;3.07;;
63555;SDS011;49700;48.072;7.800;2022-09-24T05:29:48;3.25;;;2.95;;
63555;SDS011;49700;48.072;7.800;2022-09-24T05:32:18;3.80;;;3.00;;
63555;SDS011;49700;48.072;7.800;2022-09-24T05:34:44;3.95;;;3.30;;
63555;SDS011;49700;48.072;7.800;2022-09-24T05:37:10;2.92;;;2.65;;
63555;SDS011;49700;48.072;7.800;2022-09-24T05:39:37;6.07;;;4.25;;
63555;SDS011;49700;48.072;7.800;2022-09-24T05:42:02;4.57;;;3.53;;
63555;SDS011;49700;48.072;7.800;2022-09-24T05:44:28;3.30;;;3.00;;
63555;SDS011;49700;48.072;7.800;2022-09-24T05:46:55;4.80;;;3.67;;
63555;SDS011;49700;48.072;7.800;2022-09-24T05:49:21;6.38;;;4.18;;
63555;SDS011;49700;48.072;7.800;2022-09-24T05:51:50;4.50;;;4.10;;
63555;SDS011;49700;48.072;7.800;2022-09-24T05:54:16;5.97;;;3.78;;
63555;SDS011;49700;48.072;7.800;2022-09-24T05:56:42;4.70;;;3.85;;
63555;SDS011;49700;48.072;7.800;2022-09-24T05:59:08;3.73;;;3.43;;
63555;SDS011;49700;48.072;7.800;2022-09-24T06:01:34;4.13;;;3.23;;
63555;SDS011;49700;48.072;7.800;2022-09-24T06:03:59;4.53;;;3.00;;
63555;SDS011;49700;48.072;7.800;2022-09-24T06:06:25;3.40;;;3.10;;
63555;SDS011;49700;48.072;7.800;2022-09-24T06:08:51;4.10;;;2.90;;
63555;SDS011;49700;48.072;7.800;2022-09-24T06:11:16;3.70;;;3.13;;
63555;SDS011;49700;48.072;7.800;2022-09-24T06:13:42;5.13;;;3.65;;
63555;SDS011;49700;48.072;7.800;2022-09-24T06:16:09;4.80;;;3.60;;
63555;SDS011;49700;48.072;7.800;2022-09-24T06:18:37;4.20;;;3.38;;
63555;SDS011;49700;48.072;7.800;2022-09-24T06:21:05;3.60;;;3.30;;
63555;SDS011;49700;48.072;7.800;2022-09-24T06:23:35;3.95;;;2.97;;
63555;SDS011;49700;48.072;7.800;2022-09-24T06:26:02;3.45;;;3.15;;
63555;SDS011;49700;48.072;7.800;2022-09-24T06:28:29;5.75;;;3.70;;
63555;SDS011;49700;48.072;7.800;2022-09-24T06:30:57;4.07;;;3.60;;
63555;SDS011;49700;48.072;7.800;2022-09-24T06:33:24;6.25;;;2.70;;
63555;SDS011;49700;48.072;7.800;2022-09-24T06:35:49;3.50;;;3.00;;
63555;SDS011;49700;48.072;7.800;2022-09-24T06:38:15;4.20;;;3.80;;
63555;SDS011;49700;48.072;7.800;2022-09-24T06:40:42;3.40;;;3.10;;
63555;SDS011;49700;48.072;7.800;2022-09-24T06:43:15;5.35;;;2.78;;
63555;SDS011;49700;48.072;7.800;2022-09-24T06:45:42;4.60;;;3.30;;
63555;SDS011;49700;48.072;7.800;2022-09-24T06:48:08;3.33;;;2.80;;
63555;SDS011;49700;48.072;7.800;2022-09-24T06:50:39;2.95;;;2.75;;
63555;SDS011;49700;48.072;7.800;2022-09-24T06:53:07;5.40;;;2.83;;
63555;SDS011;49700;48.072;7.800;2022-09-24T06:55:34;3.13;;;2.78;;
63555;SDS011;49700;48.072;7.800;2022-09-24T06:58:01;5.32;;;3.13;;
63555;SDS011;49700;48.072;7.800;2022-09-24T07:00:32;4.80;;;3.28;;
63555;SDS011;49700;48.072;7.800;2022-09-24T07:02:57;4.47;;;3.50;;
63555;SDS011;49700;48.072;7.800;2022-09-24T07:05:23;5.23;;;3.70;;
63555;SDS011;49700;48.072;7.800;2022-09-24T07:07:48;4.13;;;3.67;;
63555;SDS011;49700;48.072;7.800;2022-09-24T07:10:14;5.30;;;3.27;;
63555;SDS011;49700;48.072;7.800;2022-09-24T07:12:41;3.45;;;3.20;;
63555;SDS011;49700;48.072;7.800;2022-09-24T07:15:07;5.50;;;3.33;;
63555;SDS011;49700;48.072;7.800;2022-09-24T07:17:33;5.15;;;3.50;;
63555;SDS011;49700;48.072;7.800;2022-09-24T07:19:58;3.33;;;3.03;;
63555;SDS011;49700;48.072;7.800;2022-09-24T07:22:24;4.60;;;3.33;;
63555;SDS011;49700;48.072;7.800;2022-09-24T07:24:49;4.13;;;3.53;;
63555;SDS011;49700;48.072;7.800;2022-09-24T07:27:15;5.03;;;4.20;;
63555;SDS011;49700;48.072;7.800;2022-09-24T07:29:41;3.10;;;2.83;;
63555;SDS011;49700;48.072;7.800;2022-09-24T07:32:06;4.27;;;3.50;;
63555;SDS011;49700;48.072;7.800;2022-09-24T07:34:32;3.20;;;3.00;;
63555;SDS011;49700;48.072;7.800;2022-09-24T07:36:57;2.90;;;2.70;;
63555;SDS011;49700;48.072;7.800;2022-09-24T07:39:23;3.33;;;3.03;;
63555;SDS011;49700;48.072;7.800;2022-09-24T07:41:50;4.00;;;2.90;;
63555;SDS011;49700;48.072;7.800;2022-09-24T07:44:20;3.90;;;3.42;;
63555;SDS011;49700;48.072;7.800;2022-09-24T07:46:47;4.75;;;3.20;;
63555;SDS011;49700;48.072;7.800;2022-09-24T07:49:13;3.10;;;2.70;;
63555;SDS011;49700;48.072;7.800;2022-09-24T07:51:39;3.97;;;3.40;;
63555;SDS011;49700;48.072;7.800;2022-09-24T07:54:04;7.67;;;3.10;;
63555;SDS011;49700;48.072;7.800;2022-09-24T07:56:30;3.10;;;2.80;;
63555;SDS011;49700;48.072;7.800;2022-09-24T07:58:56;7.63;;;4.20;;
63555;SDS011;49700;48.072;7.800;2022-09-24T08:01:21;5.03;;;3.77;;
63555;SDS011;49700;48.072;7.800;2022-09-24T08:03:49;4.72;;;3.80;;
63555;SDS011;49700;48.072;7.800;2022-09-24T08:06:15;4.07;;;3.15;;
63555;SDS011;49700;48.072;7.800;2022-09-24T08:08:41;5.50;;;3.37;;
63555;SDS011;49700;48.072;7.800;2022-09-24T08:11:08;4.55;;;2.90;;
63555;SDS011;49700;48.072;7.800;2022-09-24T08:13:35;3.40;;;3.10;;
63555;SDS011;49700;48.072;7.800;2022-09-24T08:16:01;3.37;;;3.07;;
63555;SDS011;49700;48.072;7.800;2022-09-24T08:18:28;2.95;;;2.75;;
63555;SDS011;49700;48.072;7.800;2022-09-24T08:20:55;3.85;;;2.45;;
63555;SDS011;49700;48.072;7.800;2022-09-24T08:23:27;4.10;;;3.53;;
63555;SDS011;49700;48.072;7.800;2022-09-24T08:25:53;2.97;;;2.20;;
63555;SDS011;49700;48.072;7.800;2022-09-24T08:28:19;4.40;;;2.90;;
63555;SDS011;49700;48.072;7.800;2022-09-24T08:30:45;3.90;;;2.57;;
63555;SDS011;49700;48.072;7.800;2022-09-24T08:33:11;3.37;;;2.30;;
63555;SDS011;49700;48.072;7.800;2022-09-24T08:35:36;3.20;;;2.90;;
63555;SDS011;49700;48.072;7.800;2022-09-24T08:38:04;4.00;;;3.17;;
63555;SDS011;49700;48.072;7.800;2022-09-24T08:40:32;3.10;;;2.13;;
63555;SDS011;49700;48.072;7.800;2022-09-24T08:45:39;3.17;;;2.30;;
63555;SDS011;49700;48.072;7.800;2022-09-24T08:48:28;2.53;;;2.10;;
63555;SDS011;49700;48.072;7.800;2022-09-24T08:51:00;2.80;;;2.50;;
63555;SDS011;49700;48.072;7.800;2022-09-24T08:56:10;2.60;;;2.40;;
63555;SDS011;49700;48.072;7.800;2022-09-24T08:58:43;2.73;;;2.43;;
63555;SDS011;49700;48.072;7.800;2022-09-24T09:03:56;3.00;;;2.67;;
63555;SDS011;49700;48.072;7.800;2022-09-24T09:09:06;3.00;;;1.87;;
63555;SDS011;49700;48.072;7.800;2022-09-24T09:11:37;2.60;;;2.40;;
63555;SDS011;49700;48.072;7.800;2022-09-24T09:16:41;3.13;;;2.50;;
63555;SDS011;49700;48.072;7.800;2022-09-24T09:19:16;2.13;;;1.93;;
63555;SDS011;49700;48.072;7.800;2022-09-24T09:21:48;3.77;;;2.60;;
63555;SDS011;49700;48.072;7.800;2022-09-24T09:24:21;3.00;;;1.90;;
63555;SDS011;49700;48.072;7.800;2022-09-24T09:26:52;3.70;;;2.00;;
63555;SDS011;49700;48.072;7.800;2022-09-24T09:29:23;3.33;;;2.87;;
63555;SDS011;49700;48.072;7.800;2022-09-24T09:32:07;4.20;;;2.27;;
63555;SDS011;49700;48.072;7.800;2022-09-24T09:35:07;3.20;;;2.13;;
63555;SDS011;49700;48.072;7.800;2022-09-24T09:37:48;3.90;;;2.40;;
63555;SDS011;49700;48.072;7.800;2022-09-24T09:40:31;4.43;;;2.07;;
63555;SDS011;49700;48.072;7.800;2022-09-24T09:43:08;2.63;;;2.10;;
63555;SDS011;49700;48.072;7.800;2022-09-24T09:48:23;2.53;;;1.67;;
63555;SDS011;49700;48.072;7.800;2022-09-24T09:50:54;2.97;;;2.17;;
63555;SDS011;49700;48.072;7.800;2022-09-24T09:53:28;2.70;;;2.37;;
63555;SDS011;49700;48.072;7.800;2022-09-24T09:55:58;2.87;;;2.20;;
63555;SDS011;49700;48.072;7.800;2022-09-24T09:58:32;3.83;;;2.70;;
63555;SDS011;49700;48.072;7.800;2022-09-24T10:03:44;3.23;;;2.30;;
63555;SDS011;49700;48.072;7.800;2022-09-24T10:06:20;2.17;;;1.97;;
63555;SDS011;49700;48.072;7.800;2022-09-24T10:08:48;2.37;;;2.17;;
63555;SDS011;49700;48.072;7.800;2022-09-24T10:11:14;2.47;;;2.10;;
63555;SDS011;49700;48.072;7.800;2022-09-24T10:13:41;3.90;;;2.37;;
63555;SDS011;49700;48.072;7.800;2022-09-24T10:16:07;2.90;;;2.27;;
63555;SDS011;49700;48.072;7.800;2022-09-24T10:21:13;6.43;;;2.77;;
63555;SDS011;49700;48.072;7.800;2022-09-24T10:23:48;3.70;;;2.43;;
63555;SDS011;49700;48.072;7.800;2022-09-24T10:26:15;3.07;;;2.80;;
63555;SDS011;49700;48.072;7.800;2022-09-24T10:28:45;2.60;;;2.40;;
63555;SDS011;49700;48.072;7.800;2022-09-24T10:31:31;2.90;;;2.43;;
63555;SDS011;49700;48.072;7.800;2022-09-24T10:34:01;2.83;;;2.63;;
63555;SDS011;49700;48.072;7.800;2022-09-24T10:36:28;7.70;;;2.37;;
63555;SDS011;49700;48.072;7.800;2022-09-24T10:39:02;3.77;;;2.07;;
63555;SDS011;49700;48.072;7.800;2022-09-24T10:41:36;3.53;;;2.97;;
63555;SDS011;49700;48.072;7.800;2022-09-24T10:44:09;3.83;;;2.57;;
63555;SDS011;49700;48.072;7.800;2022-09-24T10:46:39;5.23;;;2.67;;
63555;SDS011;49700;48.072;7.800;2022-09-24T10:54:52;2.90;;;2.60;;
63555;SDS011;49700;48.072;7.800;2022-09-24T10:57:33;2.50;;;2.30;;
63555;SDS011;49700;48.072;7.800;2022-09-24T11:05:20;2.87;;;2.20;;
63555;SDS011;49700;48.072;7.800;2022-09-24T11:10:47;4.60;;;2.10;;
63555;SDS011;49700;48.072;7.800;2022-09-24T11:13:39;2.63;;;2.07;;
63555;SDS011;49700;48.072;7.800;2022-09-24T11:16:36;2.40;;;2.20;;
63555;SDS011;49700;48.072;7.800;2022-09-24T11:22:10;3.90;;;2.53;;
63555;SDS011;49700;48.072;7.800;2022-09-24T11:30:11;3.17;;;2.87;;
63555;SDS011;49700;48.072;7.800;2022-09-24T11:38:03;2.50;;;2.07;;
63555;SDS011;49700;48.072;7.800;2022-09-24T11:55:22;2.53;;;2.20;;
63555;SDS011;49700;48.072;7.800;2022-09-24T12:00:53;6.40;;;2.57;;
63555;SDS011;49700;48.072;7.800;2022-09-24T12:06:37;2.13;;;1.93;;
63555;SDS011;49700;48.072;7.800;2022-09-24T12:11:52;2.20;;;2.00;;
63555;SDS011;49700;48.072;7.800;2022-09-24T12:18:01;2.40;;;2.10;;
63555;SDS011;49700;48.072;7.800;2022-09-24T12:20:32;4.53;;;1.80;;
63555;SDS011;49700;48.072;7.800;2022-09-24T12:23:11;3.27;;;2.30;;
63555;SDS011;49700;48.072;7.800;2022-09-24T12:25:41;2.73;;;2.53;;
63555;SDS011;49700;48.072;7.800;2022-09-24T12:28:11;2.57;;;2.37;;
63555;SDS011;49700;48.072;7.800;2022-09-24T12:31:00;2.53;;;2.10;;
63555;SDS011;49700;48.072;7.800;2022-09-24T12:34:17;3.23;;;1.83;;
63555;SDS011;49700;48.072;7.800;2022-09-24T12:40:17;2.80;;;2.33;;
63555;SDS011;49700;48.072;7.800;2022-09-24T12:42:44;1.93;;;1.73;;
63555;SDS011;49700;48.072;7.800;2022-09-24T12:45:15;2.40;;;2.03;;
63555;SDS011;49700;48.072;7.800;2022-09-24T12:47:48;2.73;;;1.93;;
63555;SDS011;49700;48.072;7.800;2022-09-24T12:50:20;2.20;;;1.80;;
63555;SDS011;49700;48.072;7.800;2022-09-24T12:52:49;2.10;;;1.90;;
63555;SDS011;49700;48.072;7.800;2022-09-24T12:55:21;2.87;;;1.60;;
63555;SDS011;49700;48.072;7.800;2022-09-24T12:57:50;2.63;;;2.43;;
63555;SDS011;49700;48.072;7.800;2022-09-24T13:00:39;2.50;;;1.67;;
63555;SDS011;49700;48.072;7.800;2022-09-24T13:03:34;4.13;;;1.70;;
63555;SDS011;49700;48.072;7.800;2022-09-24T13:06:03;4.00;;;2.20;;
63555;SDS011;49700;48.072;7.800;2022-09-24T13:08:43;1.80;;;1.57;;
63555;SDS011;49700;48.072;7.800;2022-09-24T13:11:28;8.10;;;2.67;;
63555;SDS011;49700;48.072;7.800;2022-09-24T13:14:38;3.23;;;2.20;;
63555;SDS011;49700;48.072;7.800;2022-09-24T13:16:46;2.73;;;2.13;;
63555;SDS011;49700;48.072;7.800;2022-09-24T13:19:33;2.70;;;2.00;;
63555;SDS011;49700;48.072;7.800;2022-09-24T13:22:01;2.27;;;1.93;;
63555;SDS011;49700;48.072;7.800;2022-09-24T13:24:29;3.60;;;2.00;;
63555;SDS011;49700;48.072;7.800;2022-09-24T13:27:07;4.30;;;2.20;;
63555;SDS011;49700;48.072;7.800;2022-09-24T13:29:46;3.20;;;2.50;;
63555;SDS011;49700;48.072;7.800;2022-09-24T13:32:17;2.70;;;2.27;;
63555;SDS011;49700;48.072;7.800;2022-09-24T13:34:45;3.30;;;2.43;;
63555;SDS011;49700;48.072;7.800;2022-09-24T13:37:19;2.80;;;1.90;;
63555;SDS011;49700;48.072;7.800;2022-09-24T13:39:57;5.80;;;2.13;;
63555;SDS011;49700;48.072;7.800;2022-09-24T13:42:36;2.23;;;2.00;;
63555;SDS011;49700;48.072;7.800;2022-09-24T13:45:12;2.50;;;2.23;;
63555;SDS011;49700;48.072;7.800;2022-09-24T13:47:42;2.10;;;1.90;;
63555;SDS011;49700;48.072;7.800;2022-09-24T13:50:15;2.53;;;2.10;;
63555;SDS011;49700;48.072;7.800;2022-09-24T13:52:53;4.17;;;2.10;;
63555;SDS011;49700;48.072;7.800;2022-09-24T13:57:57;2.57;;;1.97;;
63555;SDS011;49700;48.072;7.800;2022-09-24T14:00:23;3.23;;;1.70;;
63555;SDS011;49700;48.072;7.800;2022-09-24T14:05:50;1.80;;;1.60;;
63555;SDS011;49700;48.072;7.800;2022-09-24T14:08:17;1.80;;;1.70;;
63555;SDS011;49700;48.072;7.800;2022-09-24T14:10:46;3.10;;;2.17;;
63555;SDS011;49700;48.072;7.800;2022-09-24T14:15:55;2.90;;;2.00;;
63555;SDS011;49700;48.072;7.800;2022-09-24T14:18:23;3.10;;;2.10;;
63555;SDS011;49700;48.072;7.800;2022-09-24T14:20:52;2.60;;;2.00;;
63555;SDS011;49700;48.072;7.800;2022-09-24T14:23:22;2.90;;;2.10;;
63555;SDS011;49700;48.072;7.800;2022-09-24T14:25:50;2.30;;;1.60;;
63555;SDS011;49700;48.072;7.800;2022-09-24T14:28:17;2.40;;;2.10;;
63555;SDS011;49700;48.072;7.800;2022-09-24T14:30:50;2.20;;;1.77;;
63555;SDS011;49700;48.072;7.800;2022-09-24T14:33:19;2.07;;;1.57;;
63555;SDS011;49700;48.072;7.800;2022-09-24T14:35:53;1.90;;;1.70;;
63555;SDS011;49700;48.072;7.800;2022-09-24T14:38:25;2.60;;;2.07;;
63555;SDS011;49700;48.072;7.800;2022-09-24T14:40:59;2.90;;;1.93;;
63555;SDS011;49700;48.072;7.800;2022-09-24T14:46:16;2.13;;;1.90;;
63555;SDS011;49700;48.072;7.800;2022-09-24T14:48:46;3.63;;;2.27;;
63555;SDS011;49700;48.072;7.800;2022-09-24T14:51:27;2.70;;;1.83;;
63555;SDS011;49700;48.072;7.800;2022-09-24T14:54:01;2.70;;;2.20;;
63555;SDS011;49700;48.072;7.800;2022-09-24T14:56:42;2.87;;;2.00;;
63555;SDS011;49700;48.072;7.800;2022-09-24T14:59:12;2.90;;;2.10;;
63555;SDS011;49700;48.072;7.800;2022-09-24T15:01:38;3.00;;;1.83;;
63555;SDS011;49700;48.072;7.800;2022-09-24T15:04:04;3.50;;;2.50;;
63555;SDS011;49700;48.072;7.800;2022-09-24T15:06:43;2.90;;;2.60;;
63555;SDS011;49700;48.072;7.800;2022-09-24T15:09:27;5.10;;;3.77;;
63555;SDS011;49700;48.072;7.800;2022-09-24T15:11:54;4.90;;;4.47;;
63555;SDS011;49700;48.072;7.800;2022-09-24T15:14:34;3.80;;;2.30;;
63555;SDS011;49700;48.072;7.800;2022-09-24T15:17:17;4.57;;;2.47;;
63555;SDS011;49700;48.072;7.800;2022-09-24T15:19:45;5.23;;;3.73;;
63555;SDS011;49700;48.072;7.800;2022-09-24T15:22:11;3.63;;;1.87;;
63555;SDS011;49700;48.072;7.800;2022-09-24T15:24:37;13.50;;;8.00;;
63555;SDS011;49700;48.072;7.800;2022-09-24T15:27:04;4.03;;;2.53;;
63555;SDS011;49700;48.072;7.800;2022-09-24T15:29:38;7.60;;;4.83;;
63555;SDS011;49700;48.072;7.800;2022-09-24T15:32:04;11.87;;;9.33;;
63555;SDS011;49700;48.072;7.800;2022-09-24T15:34:38;3.00;;;2.23;;
63555;SDS011;49700;48.072;7.800;2022-09-24T15:37:04;2.93;;;2.40;;
63555;SDS011;49700;48.072;7.800;2022-09-24T15:39:30;3.77;;;2.97;;
63555;SDS011;49700;48.072;7.800;2022-09-24T15:41:56;5.43;;;3.10;;
63555;SDS011;49700;48.072;7.800;2022-09-24T15:44:22;13.93;;;9.70;;
63555;SDS011;49700;48.072;7.800;2022-09-24T15:46:49;10.30;;;6.97;;
63555;SDS011;49700;48.072;7.800;2022-09-24T15:49:18;3.50;;;2.67;;
63555;SDS011;49700;48.072;7.800;2022-09-24T15:51:49;3.63;;;3.30;;
63555;SDS011;49700;48.072;7.800;2022-09-24T15:54:19;3.07;;;2.43;;
63555;SDS011;49700;48.072;7.800;2022-09-24T15:56:45;3.90;;;2.30;;
63555;SDS011;49700;48.072;7.800;2022-09-24T15:59:16;2.23;;;1.80;;
63555;SDS011;49700;48.072;7.800;2022-09-24T16:01:43;3.10;;;2.80;;
63555;SDS011;49700;48.072;7.800;2022-09-24T16:04:09;2.70;;;2.10;;
63555;SDS011;49700;48.072;7.800;2022-09-24T16:06:35;2.90;;;2.70;;
63555;SDS011;49700;48.072;7.800;2022-09-24T16:09:01;2.63;;;2.03;;
63555;SDS011;49700;48.072;7.800;2022-09-24T16:11:27;2.63;;;2.40;;
63555;SDS011;49700;48.072;7.800;2022-09-24T16:13:53;2.67;;;2.10;;
63555;SDS011;49700;48.072;7.800;2022-09-24T16:16:18;3.40;;;2.70;;
63555;SDS011;49700;48.072;7.800;2022-09-24T16:18:44;4.40;;;3.80;;
63555;SDS011;49700;48.072;7.800;2022-09-24T16:21:09;2.93;;;1.77;;
63555;SDS011;49700;48.072;7.800;2022-09-24T16:23:34;2.23;;;1.50;;
63555;SDS011;49700;48.072;7.800;2022-09-24T16:26:00;3.37;;;1.97;;
63555;SDS011;49700;48.072;7.800;2022-09-24T16:28:26;2.90;;;1.80;;
63555;SDS011;49700;48.072;7.800;2022-09-24T16:30:53;2.27;;;1.90;;
63555;SDS011;49700;48.072;7.800;2022-09-24T16:33:18;4.63;;;3.42;;
63555;SDS011;49700;48.072;7.800;2022-09-24T16:35:44;5.30;;;3.43;;
63555;SDS011;49700;48.072;7.800;2022-09-24T16:38:09;8.20;;;5.70;;
63555;SDS011;49700;48.072;7.800;2022-09-24T16:40:35;7.10;;;5.30;;
63555;SDS011;49700;48.072;7.800;2022-09-24T16:43:00;4.83;;;3.33;;
63555;SDS011;49700;48.072;7.800;2022-09-24T16:45:26;5.03;;;3.37;;
63555;SDS011;49700;48.072;7.800;2022-09-24T16:47:51;4.00;;;2.80;;